Argyll, United Kingdom
Current Conditions -  °F | °C
As of 11:20 AM on Monday 20 Oct 2014 (Local Time) from EGEO Reporting Station
Rain Showers Rain Showers  
Wind Chill: 12°   Ceiling: 2000
Heat Index: 12°   Visibility: 6mi
Dew Point:   Wind: 12mph
Humidity: 82%   Direction: 220°SW
Pressure: 29.71"   Gusts: NA
Location:  56.05°N, 5.39°W
Report Text: EGEO 201020Z 22010KT 9999 VCSH SCT014 BKN020 12/09 Q1006
Loading
Personal Weather Stations






























Interactive Weather Map
Tropical Storm Tracking
New forecast layout! Learn more

10-Day Weather Forecast

Advertisements
Track Severe Weather on mobile